Impacts METAR Board INFO
IDs:

KLAX - Los Angeles Intl, CA, US

Updated at: 0648 UTC 21 Jan 2018
Potential Impact None Slight Moderate High
Time20/18Z 20/19Z 20/20Z 20/21Z 20/22Z 20/23Z 21/00Z 21/01Z 21/02Z 21/03Z 21/04Z 21/05Z 21/06Z
VIS10 10 10 10 10 10 10 10 10 10 10 10 10
CIG-- -- -- -- -- -- -- -- -- -- -- -- --
CoverSCTSCTSCTSCTFEWFEWFEWFEWFEWFEWCLRCLRCLR
FltCatVFRVFRVFRVFRVFRVFRVFRVFRVFRVFRVFRVFRVFR
WX--------------------------
WDir340340320330260280290300360350350300310
WSpd15 17 16 7 12 17 10 14 10 18 11 11 15
WGst23 24 23 -- -- -- 20 -- 19 26 18 -- 22
Raw hourly METARs
KLAX 201753Z 34015G23KT 10SM FEW090 FEW120 SCT180 14/M01 A3006 RMK AO2 SLP179 T01441011 10150 20117 53025
KLAX 201853Z 34017G24KT 10SM FEW045 FEW090 SCT120 SCT180 16/M02 A3006 RMK AO2 SLP180 T01561017
KLAX 201953Z 32016G23KT 10SM FEW045 FEW090 SCT120 16/M03 A3005 RMK AO2 SLP175 T01611028
KLAX 202053Z 33007KT 300V360 10SM FEW045 FEW090 SCT120 17/M02 A3003 RMK AO2 SLP170 T01671022 58008
KLAX 202153Z 26012KT 10SM FEW047 FEW090 16/02 A3004 RMK AO2 SLP170 T01610017
KLAX 202253Z 28017KT 10SM FEW047 FEW090 17/03 A3004 RMK AO2 SLP171 T01670033
KLAX 202353Z 29010G20KT 10SM FEW047 FEW090 16/03 A3005 RMK AO2 SLP174 T01610033 10172 20144 53004
KLAX 210053Z 30014KT 10SM FEW090 16/05 A3007 RMK AO2 SLP181 T01560050
KLAX 210153Z 36010G19KT 10SM FEW060 FEW090 14/M04 A3008 RMK AO2 SLP186 T01441044
KLAX 210253Z 35018G26KT 320V040 10SM FEW060 14/M06 A3009 RMK AO2 PK WND 33026/0253 SLP190 T01391056 51016
KLAX 210353Z 35011G18KT 10SM CLR 13/M04 A3011 RMK AO2 PK WND 01026/0257 SLP196 T01331044
KLAX 210453Z 30011KT 10SM CLR 13/M03 A3015 RMK AO2 SLP207 T01281033
KLAX 210553Z 31015G22KT 10SM CLR 12/M03 A3015 RMK AO2 SLP209 T01221033 10167 20122 51019